sensor_id;sensor_type;location;lat;lon;timestamp;pressure;altitude;pressure_sealevel;temperature;humidity
33404;BME280;19751;40.274;18.268;2023-02-14T00:01:47;102821.19;;;6.51;100.00
33404;BME280;19751;40.274;18.268;2023-02-14T00:04:14;102818.53;;;6.51;100.00
33404;BME280;19751;40.274;18.268;2023-02-14T00:06:40;102816.72;;;6.51;100.00
33404;BME280;19751;40.274;18.268;2023-02-14T00:09:09;102819.28;;;6.53;100.00
33404;BME280;19751;40.274;18.268;2023-02-14T00:11:35;102815.84;;;6.51;100.00
33404;BME280;19751;40.274;18.268;2023-02-14T00:14:01;102812.44;;;6.48;100.00
33404;BME280;19751;40.274;18.268;2023-02-14T00:16:45;102809.47;;;6.40;100.00
33404;BME280;19751;40.274;18.268;2023-02-14T00:19:13;102817.09;;;6.34;100.00
33404;BME280;19751;40.274;18.268;2023-02-14T00:21:39;102812.41;;;6.25;100.00
33404;BME280;19751;40.274;18.268;2023-02-14T00:24:25;102805.69;;;6.19;100.00
33404;BME280;19751;40.274;18.268;2023-02-14T00:26:51;102803.34;;;6.14;100.00
33404;BME280;19751;40.274;18.268;2023-02-14T00:29:20;102802.50;;;6.14;100.00
33404;BME280;19751;40.274;18.268;2023-02-14T00:31:46;102800.22;;;6.08;100.00
33404;BME280;19751;40.274;18.268;2023-02-14T00:34:13;102807.94;;;6.12;100.00
33404;BME280;19751;40.274;18.268;2023-02-14T00:36:39;102807.72;;;6.15;100.00
33404;BME280;19751;40.274;18.268;2023-02-14T00:39:06;102804.91;;;6.17;100.00
33404;BME280;19751;40.274;18.268;2023-02-14T00:41:32;102808.88;;;6.24;100.00
33404;BME280;19751;40.274;18.268;2023-02-14T00:43:58;102798.91;;;6.26;100.00
33404;BME280;19751;40.274;18.268;2023-02-14T00:46:24;102797.41;;;6.22;100.00
33404;BME280;19751;40.274;18.268;2023-02-14T00:48:50;102804.69;;;6.20;100.00
33404;BME280;19751;40.274;18.268;2023-02-14T00:51:17;102803.09;;;6.17;100.00
33404;BME280;19751;40.274;18.268;2023-02-14T00:53:44;102799.03;;;6.12;100.00
33404;BME280;19751;40.274;18.268;2023-02-14T00:56:11;102792.22;;;6.08;100.00
33404;BME280;19751;40.274;18.268;2023-02-14T00:58:36;102793.38;;;6.04;100.00
33404;BME280;19751;40.274;18.268;2023-02-14T01:01:02;102801.19;;;6.07;100.00
33404;BME280;19751;40.274;18.268;2023-02-14T01:03:28;102792.22;;;6.08;100.00
33404;BME280;19751;40.274;18.268;2023-02-14T01:05:54;102788.34;;;6.12;100.00
33404;BME280;19751;40.274;18.268;2023-02-14T01:08:19;102790.16;;;6.11;100.00
33404;BME280;19751;40.274;18.268;2023-02-14T01:10:45;102787.72;;;6.08;100.00
33404;BME280;19751;40.274;18.268;2023-02-14T01:13:11;102784.19;;;6.08;100.00
33404;BME280;19751;40.274;18.268;2023-02-14T01:15:39;102789.09;;;6.01;100.00
33404;BME280;19751;40.274;18.268;2023-02-14T01:18:06;102792.09;;;5.96;100.00
33404;BME280;19751;40.274;18.268;2023-02-14T01:20:31;102777.03;;;5.95;100.00
33404;BME280;19751;40.274;18.268;2023-02-14T01:22:57;102778.09;;;5.93;100.00
33404;BME280;19751;40.274;18.268;2023-02-14T01:25:23;102775.50;;;5.91;100.00
33404;BME280;19751;40.274;18.268;2023-02-14T01:27:48;102779.06;;;5.92;100.00
33404;BME280;19751;40.274;18.268;2023-02-14T01:30:14;102779.47;;;5.86;100.00
33404;BME280;19751;40.274;18.268;2023-02-14T01:32:40;102771.47;;;5.86;100.00
33404;BME280;19751;40.274;18.268;2023-02-14T01:35:07;102768.47;;;5.90;100.00
33404;BME280;19751;40.274;18.268;2023-02-14T01:37:32;102775.50;;;5.91;100.00
33404;BME280;19751;40.274;18.268;2023-02-14T01:39:58;102762.59;;;5.85;100.00
33404;BME280;19751;40.274;18.268;2023-02-14T01:42:24;102764.41;;;5.85;100.00
33404;BME280;19751;40.274;18.268;2023-02-14T01:44:56;102759.16;;;5.83;100.00
33404;BME280;19751;40.274;18.268;2023-02-14T01:47:22;102760.97;;;5.83;100.00
33404;BME280;19751;40.274;18.268;2023-02-14T01:49:58;102753.50;;;5.75;100.00
33404;BME280;19751;40.274;18.268;2023-02-14T01:52:30;102744.31;;;5.66;100.00
33404;BME280;19751;40.274;18.268;2023-02-14T01:55:17;102745.16;;;5.67;100.00
33404;BME280;19751;40.274;18.268;2023-02-14T01:57:54;102752.00;;;5.71;100.00
33404;BME280;19751;40.274;18.268;2023-02-14T02:00:22;102746.44;;;5.74;100.00
33404;BME280;19751;40.274;18.268;2023-02-14T02:03:07;102734.88;;;5.73;100.00
33404;BME280;19751;40.274;18.268;2023-02-14T02:05:37;102741.72;;;5.78;100.00
33404;BME280;19751;40.274;18.268;2023-02-14T02:08:04;102744.81;;;5.84;100.00
33404;BME280;19751;40.274;18.268;2023-02-14T02:10:30;102742.78;;;5.88;100.00
33404;BME280;19751;40.274;18.268;2023-02-14T02:13:00;102748.66;;;5.80;100.00
33404;BME280;19751;40.274;18.268;2023-02-14T02:15:31;102737.66;;;5.72;100.00
33404;BME280;19751;40.274;18.268;2023-02-14T02:18:14;102738.41;;;5.74;100.00
33404;BME280;19751;40.274;18.268;2023-02-14T02:34:19;102719.56;;;5.76;100.00
33404;BME280;19751;40.274;18.268;2023-02-14T02:37:27;102716.91;;;5.76;100.00
33404;BME280;19751;40.274;18.268;2023-02-14T02:48:05;102721.38;;;6.01;100.00
33404;BME280;19751;40.274;18.268;2023-02-14T02:50:48;102715.81;;;5.91;100.00
33404;BME280;19751;40.274;18.268;2023-02-14T02:54:12;102718.41;;;5.80;100.00
33404;BME280;19751;40.274;18.268;2023-02-14T02:56:38;102716.81;;;5.77;100.00
33404;BME280;19751;40.274;18.268;2023-02-14T03:01:45;102718.50;;;5.78;100.00
33404;BME280;19751;40.274;18.268;2023-02-14T03:04:12;102716.47;;;5.82;100.00
33404;BME280;19751;40.274;18.268;2023-02-14T03:06:59;102713.69;;;5.83;100.00
33404;BME280;19751;40.274;18.268;2023-02-14T03:14:55;102702.56;;;5.89;100.00
33404;BME280;19751;40.274;18.268;2023-02-14T03:17:36;102711.66;;;5.87;100.00
33404;BME280;19751;40.274;18.268;2023-02-14T03:20:15;102708.00;;;5.88;100.00
33404;BME280;19751;40.274;18.268;2023-02-14T03:22:52;102699.97;;;5.88;100.00
33404;BME280;19751;40.274;18.268;2023-02-14T03:29:07;102711.53;;;5.88;100.00
33404;BME280;19751;40.274;18.268;2023-02-14T03:36:45;102703.09;;;5.94;100.00
33404;BME280;19751;40.274;18.268;2023-02-14T03:42:07;102712.41;;;6.02;100.00
33404;BME280;19751;40.274;18.268;2023-02-14T03:44:36;102704.38;;;6.02;100.00
33404;BME280;19751;40.274;18.268;2023-02-14T03:47:08;102707.78;;;6.04;100.00
33404;BME280;19751;40.274;18.268;2023-02-14T03:49:41;102711.53;;;6.01;100.00
33404;BME280;19751;40.274;18.268;2023-02-14T03:52:08;102708.00;;;6.01;100.00
33404;BME280;19751;40.274;18.268;2023-02-14T03:54:34;102709.59;;;6.03;100.00
33404;BME280;19751;40.274;18.268;2023-02-14T03:59:36;102714.31;;;6.00;100.00
33404;BME280;19751;40.274;18.268;2023-02-14T04:02:08;102711.97;;;5.95;100.00
33404;BME280;19751;40.274;18.268;2023-02-14T04:04:38;102716.66;;;5.91;100.00
33404;BME280;19751;40.274;18.268;2023-02-14T04:07:15;102725.22;;;5.84;100.00
33404;BME280;19751;40.274;18.268;2023-02-14T04:09:42;102723.41;;;5.84;100.00
33404;BME280;19751;40.274;18.268;2023-02-14T04:12:08;102723.97;;;5.89;100.00
33404;BME280;19751;40.274;18.268;2023-02-14T04:14:34;102704.94;;;5.94;100.00
33404;BME280;19751;40.274;18.268;2023-02-14T04:17:00;102705.03;;;5.92;100.00
33404;BME280;19751;40.274;18.268;2023-02-14T04:19:44;102708.84;;;5.88;100.00
33404;BME280;19751;40.274;18.268;2023-02-14T04:22:10;102711.13;;;5.82;100.00
33404;BME280;19751;40.274;18.268;2023-02-14T04:24:35;102711.34;;;5.79;100.00
33404;BME280;19751;40.274;18.268;2023-02-14T04:27:01;102706.13;;;5.77;100.00
33404;BME280;19751;40.274;18.268;2023-02-14T04:29:43;102708.03;;;5.75;100.00
33404;BME280;19751;40.274;18.268;2023-02-14T04:32:12;102709.00;;;5.74;100.00
33404;BME280;19751;40.274;18.268;2023-02-14T04:34:39;102700.69;;;5.66;100.00
33404;BME280;19751;40.274;18.268;2023-02-14T04:37:06;102704.31;;;5.65;100.00
33404;BME280;19751;40.274;18.268;2023-02-14T04:39:32;102696.84;;;5.57;100.00
33404;BME280;19751;40.274;18.268;2023-02-14T04:41:58;102694.03;;;5.59;100.00
33404;BME280;19751;40.274;18.268;2023-02-14T04:44:23;102694.16;;;5.57;100.00
33404;BME280;19751;40.274;18.268;2023-02-14T04:46:49;102687.84;;;5.58;100.00
33404;BME280;19751;40.274;18.268;2023-02-14T04:49:15;102687.63;;;5.61;100.00
33404;BME280;19751;40.274;18.268;2023-02-14T04:51:41;102688.50;;;5.62;100.00
33404;BME280;19751;40.274;18.268;2023-02-14T04:54:06;102687.44;;;5.64;100.00
33404;BME280;19751;40.274;18.268;2023-02-14T04:56:32;102682.09;;;5.64;100.00
33404;BME280;19751;40.274;18.268;2023-02-14T04:58:57;102669.31;;;5.68;100.00
33404;BME280;19751;40.274;18.268;2023-02-14T05:01:23;102668.38;;;5.69;100.00
33404;BME280;19751;40.274;18.268;2023-02-14T05:03:48;102675.63;;;5.67;100.00
33404;BME280;19751;40.274;18.268;2023-02-14T05:06:14;102676.09;;;5.61;100.00
33404;BME280;19751;40.274;18.268;2023-02-14T05:08:39;102678.78;;;5.61;100.00
33404;BME280;19751;40.274;18.268;2023-02-14T05:11:05;102685.94;;;5.60;100.00
33404;BME280;19751;40.274;18.268;2023-02-14T05:13:31;102691.16;;;5.62;100.00
33404;BME280;19751;40.274;18.268;2023-02-14T05:15:57;102685.69;;;5.63;100.00
33404;BME280;19751;40.274;18.268;2023-02-14T05:18:23;102685.94;;;5.60;100.00
33404;BME280;19751;40.274;18.268;2023-02-14T05:20:53;102692.34;;;5.58;100.00
33404;BME280;19751;40.274;18.268;2023-02-14T05:23:20;102691.59;;;5.56;100.00
33404;BME280;19751;40.274;18.268;2023-02-14T05:25:49;102694.25;;;5.56;100.00
33404;BME280;19751;40.274;18.268;2023-02-14T05:28:17;102691.69;;;5.54;100.00
33404;BME280;19751;40.274;18.268;2023-02-14T05:30:42;102690.72;;;5.55;100.00
33404;BME280;19751;40.274;18.268;2023-02-14T05:33:08;102696.31;;;5.52;100.00
33404;BME280;19751;40.274;18.268;2023-02-14T05:35:33;102696.19;;;5.54;100.00
33404;BME280;19751;40.274;18.268;2023-02-14T05:37:59;102703.47;;;5.52;100.00
33404;BME280;19751;40.274;18.268;2023-02-14T05:40:26;102693.97;;;5.47;100.00
33404;BME280;19751;40.274;18.268;2023-02-14T05:42:52;102696.84;;;5.44;100.00
33404;BME280;19751;40.274;18.268;2023-02-14T05:45:18;102694.19;;;5.44;100.00
33404;BME280;19751;40.274;18.268;2023-02-14T05:47:44;102696.22;;;5.41;100.00
33404;BME280;19751;40.274;18.268;2023-02-14T05:50:11;102705.28;;;5.38;100.00
33404;BME280;19751;40.274;18.268;2023-02-14T05:52:37;102705.41;;;5.37;100.00
33404;BME280;19751;40.274;18.268;2023-02-14T05:55:03;102707.09;;;5.38;100.00
33404;BME280;19751;40.274;18.268;2023-02-14T05:57:29;102708.19;;;5.35;100.00
33404;BME280;19751;40.274;18.268;2023-02-14T05:59:54;102704.03;;;5.31;100.00
33404;BME280;19751;40.274;18.268;2023-02-14T06:02:20;102711.81;;;5.34;100.00
33404;BME280;19751;40.274;18.268;2023-02-14T06:04:45;102712.47;;;5.38;100.00
33404;BME280;19751;40.274;18.268;2023-02-14T06:07:10;102712.38;;;5.39;100.00
33404;BME280;19751;40.274;18.268;2023-02-14T06:09:36;102711.72;;;5.36;100.00
33404;BME280;19751;40.274;18.268;2023-02-14T06:12:01;102715.44;;;5.33;100.00
33404;BME280;19751;40.274;18.268;2023-02-14T06:14:27;102713.75;;;5.32;100.00
33404;BME280;19751;40.274;18.268;2023-02-14T06:16:52;102717.16;;;5.34;100.00
33404;BME280;19751;40.274;18.268;2023-02-14T06:19:18;102713.53;;;5.35;100.00
33404;BME280;19751;40.274;18.268;2023-02-14T06:21:43;102716.09;;;5.37;100.00
33404;BME280;19751;40.274;18.268;2023-02-14T06:24:09;102716.31;;;5.34;100.00
33404;BME280;19751;40.274;18.268;2023-02-14T06:26:34;102715.44;;;5.33;100.00
33404;BME280;19751;40.274;18.268;2023-02-14T06:29:00;102711.94;;;5.33;100.00
33404;BME280;19751;40.274;18.268;2023-02-14T06:31:26;102717.16;;;5.34;100.00
33404;BME280;19751;40.274;18.268;2023-02-14T06:33:52;102714.28;;;5.37;100.00
33404;BME280;19751;40.274;18.268;2023-02-14T06:36:17;102704.34;;;5.39;100.00
33404;BME280;19751;40.274;18.268;2023-02-14T06:38:43;102701.34;;;5.44;100.00
33404;BME280;19751;40.274;18.268;2023-02-14T06:41:10;102699.53;;;5.44;100.00
33404;BME280;19751;40.274;18.268;2023-02-14T06:43:36;102691.72;;;5.41;100.00
33404;BME280;19751;40.274;18.268;2023-02-14T06:46:02;102700.59;;;5.42;100.00
33404;BME280;19751;40.274;18.268;2023-02-14T06:48:28;102694.28;;;5.43;100.00
33404;BME280;19751;40.274;18.268;2023-02-14T06:50:55;102696.66;;;5.47;100.00
33404;BME280;19751;40.274;18.268;2023-02-14T06:53:20;102697.91;;;5.55;100.00
33404;BME280;19751;40.274;18.268;2023-02-14T06:55:46;102691.03;;;5.63;100.00
33404;BME280;19751;40.274;18.268;2023-02-14T06:58:12;102701.41;;;5.68;100.00
33404;BME280;19751;40.274;18.268;2023-02-14T07:00:38;102694.78;;;5.73;100.00
33404;BME280;19751;40.274;18.268;2023-02-14T07:03:07;102693.25;;;5.82;100.00
33404;BME280;19751;40.274;18.268;2023-02-14T07:05:33;102686.50;;;5.89;100.00
33404;BME280;19751;40.274;18.268;2023-02-14T07:07:59;102683.91;;;6.01;100.00
33404;BME280;19751;40.274;18.268;2023-02-14T07:10:25;102683.03;;;6.13;100.00
33404;BME280;19751;40.274;18.268;2023-02-14T07:12:50;102691.13;;;6.24;100.00
33404;BME280;19751;40.274;18.268;2023-02-14T07:15:16;102689.38;;;6.36;100.00
33404;BME280;19751;40.274;18.268;2023-02-14T07:17:42;102686.75;;;6.47;100.00
33404;BME280;19751;40.274;18.268;2023-02-14T07:20:09;102678.75;;;6.58;100.00
33404;BME280;19751;40.274;18.268;2023-02-14T07:22:35;102680.00;;;6.65;100.00
33404;BME280;19751;40.274;18.268;2023-02-14T07:25:01;102674.78;;;6.75;100.00
33404;BME280;19751;40.274;18.268;2023-02-14T07:27:26;102676.66;;;6.86;100.00
33404;BME280;19751;40.274;18.268;2023-02-14T07:29:52;102673.38;;;6.93;100.00
33404;BME280;19751;40.274;18.268;2023-02-14T07:32:17;102669.97;;;7.03;100.00
33404;BME280;19751;40.274;18.268;2023-02-14T07:34:43;102666.47;;;7.13;100.00
33404;BME280;19751;40.274;18.268;2023-02-14T07:37:09;102665.63;;;7.24;100.00
33404;BME280;19751;40.274;18.268;2023-02-14T07:39:34;102674.38;;;7.37;100.00
33404;BME280;19751;40.274;18.268;2023-02-14T07:42:00;102670.88;;;7.48;100.00
33404;BME280;19751;40.274;18.268;2023-02-14T07:44:25;102661.00;;;7.60;100.00
33404;BME280;19751;40.274;18.268;2023-02-14T07:46:51;102667.56;;;7.67;100.00
33404;BME280;19751;40.274;18.268;2023-02-14T07:49:17;102659.41;;;7.80;100.00
33404;BME280;19751;40.274;18.268;2023-02-14T07:51:42;102657.78;;;7.88;100.00
33404;BME280;19751;40.274;18.268;2023-02-14T07:54:08;102646.41;;;7.96;100.00
33404;BME280;19751;40.274;18.268;2023-02-14T07:56:33;102648.22;;;8.07;100.00
33404;BME280;19751;40.274;18.268;2023-02-14T07:58:59;102643.78;;;8.17;100.00
33404;BME280;19751;40.274;18.268;2023-02-14T08:01:24;102639.63;;;8.24;100.00
33404;BME280;19751;40.274;18.268;2023-02-14T08:03:50;102629.22;;;8.31;100.00
33404;BME280;19751;40.274;18.268;2023-02-14T08:06:20;102628.72;;;8.37;100.00
33404;BME280;19751;40.274;18.268;2023-02-14T08:08:47;102629.94;;;8.44;100.00
33404;BME280;19751;40.274;18.268;2023-02-14T08:11:13;102632.97;;;8.51;100.00
33404;BME280;19751;40.274;18.268;2023-02-14T08:14:01;102626.91;;;8.58;100.00
33404;BME280;19751;40.274;18.268;2023-02-14T08:16:27;102629.94;;;8.65;100.00
33404;BME280;19751;40.274;18.268;2023-02-14T08:18:52;102629.44;;;8.71;100.00
33404;BME280;19751;40.274;18.268;2023-02-14T08:21:18;102622.53;;;8.78;100.00
33404;BME280;19751;40.274;18.268;2023-02-14T08:23:43;102635.16;;;8.87;100.00
33404;BME280;19751;40.274;18.268;2023-02-14T08:26:09;102628.03;;;8.98;100.00
33404;BME280;19751;40.274;18.268;2023-02-14T08:28:34;102626.22;;;9.08;100.00
33404;BME280;19751;40.274;18.268;2023-02-14T08:31:00;102633.38;;;9.18;100.00
33404;BME280;19751;40.274;18.268;2023-02-14T08:33:26;102627.34;;;9.26;100.00
33404;BME280;19751;40.274;18.268;2023-02-14T08:36:16;102626.66;;;9.34;100.00
33404;BME280;19751;40.274;18.268;2023-02-14T08:38:47;102623.16;;;9.43;100.00
33404;BME280;19751;40.274;18.268;2023-02-14T08:41:14;102620.38;;;9.54;100.00
33404;BME280;19751;40.274;18.268;2023-02-14T08:43:40;102624.06;;;9.63;100.00
33404;BME280;19751;40.274;18.268;2023-02-14T08:46:05;102626.63;;;9.74;100.00
33404;BME280;19751;40.274;18.268;2023-02-14T08:48:31;102617.03;;;9.81;100.00
33404;BME280;19751;40.274;18.268;2023-02-14T08:50:56;102612.63;;;9.90;100.00
33404;BME280;19751;40.274;18.268;2023-02-14T08:53:25;102611.69;;;10.01;100.00
33404;BME280;19751;40.274;18.268;2023-02-14T08:55:50;102604.75;;;10.08;100.00
33404;BME280;19751;40.274;18.268;2023-02-14T08:58:16;102607.00;;;10.12;100.00
33404;BME280;19751;40.274;18.268;2023-02-14T09:00:42;102606.59;;;10.17;100.00
33404;BME280;19751;40.274;18.268;2023-02-14T09:03:08;102609.69;;;10.22;100.00
33404;BME280;19751;40.274;18.268;2023-02-14T09:05:34;102608.47;;;10.26;100.00
33404;BME280;19751;40.274;18.268;2023-02-14T09:08:01;102600.78;;;10.31;100.00
33404;BME280;19751;40.274;18.268;2023-02-14T09:10:27;102598.41;;;10.38;100.00
33404;BME280;19751;40.274;18.268;2023-02-14T09:12:52;102596.97;;;10.43;100.00
33404;BME280;19751;40.274;18.268;2023-02-14T09:15:18;102597.81;;;10.54;100.00
33404;BME280;19751;40.274;18.268;2023-02-14T09:17:44;102591.56;;;10.63;100.00
33404;BME280;19751;40.274;18.268;2023-02-14T09:20:11;102586.56;;;10.68;100.00
33404;BME280;19751;40.274;18.268;2023-02-14T09:22:37;102591.69;;;10.71;100.00
33404;BME280;19751;40.274;18.268;2023-02-14T09:25:03;102598.88;;;10.80;100.00
33404;BME280;19751;40.274;18.268;2023-02-14T09:27:29;102596.47;;;10.87;100.00
33404;BME280;19751;40.274;18.268;2023-02-14T09:29:55;102605.81;;;10.92;100.00
33404;BME280;19751;40.274;18.268;2023-02-14T09:32:20;102597.28;;;10.97;100.00
33404;BME280;19751;40.274;18.268;2023-02-14T09:34:45;102620.25;;;11.01;100.00
33404;BME280;19751;40.274;18.268;2023-02-14T09:37:12;102610.72;;;11.07;100.00
33404;BME280;19751;40.274;18.268;2023-02-14T09:39:56;102614.25;;;11.17;100.00
33404;BME280;19751;40.274;18.268;2023-02-14T09:45:15;102608.91;;;11.35;100.00
33404;BME280;19751;40.274;18.268;2023-02-14T09:47:46;102618.28;;;11.40;100.00
33404;BME280;19751;40.274;18.268;2023-02-14T09:52:58;102620.97;;;11.40;100.00
33404;BME280;19751;40.274;18.268;2023-02-14T09:55:30;102617.28;;;11.41;100.00
33404;BME280;19751;40.274;18.268;2023-02-14T09:58:07;102610.88;;;11.42;100.00
33404;BME280;19751;40.274;18.268;2023-02-14T10:00:37;102607.03;;;11.45;100.00
33404;BME280;19751;40.274;18.268;2023-02-14T10:03:27;102603.72;;;11.51;100.00
33404;BME280;19751;40.274;18.268;2023-02-14T10:06:03;102597.19;;;11.54;100.00
33404;BME280;19751;40.274;18.268;2023-02-14T10:11:12;102586.94;;;11.57;100.00
33404;BME280;19751;40.274;18.268;2023-02-14T10:13:50;102606.91;;;11.64;100.00
33404;BME280;19751;40.274;18.268;2023-02-14T10:16:36;102595.66;;;11.69;100.00
33404;BME280;19751;40.274;18.268;2023-02-14T10:19:24;102594.91;;;11.77;100.00
33404;BME280;19751;40.274;18.268;2023-02-14T10:21:54;102597.78;;;11.75;100.00
33404;BME280;19751;40.274;18.268;2023-02-14T10:24:34;102586.81;;;11.77;100.00
33404;BME280;19751;40.274;18.268;2023-02-14T10:29:36;102589.31;;;11.88;100.00
33404;BME280;19751;40.274;18.268;2023-02-14T10:32:02;102585.06;;;11.85;100.00
33404;BME280;19751;40.274;18.268;2023-02-14T10:40:21;102576.28;;;11.83;100.00
33404;BME280;19751;40.274;18.268;2023-02-14T10:46:00;102555.53;;;11.84;100.00
33404;BME280;19751;40.274;18.268;2023-02-14T10:57:00;102529.00;;;11.97;100.00
33404;BME280;19751;40.274;18.268;2023-02-14T10:59:37;102527.13;;;11.98;100.00
33404;BME280;19751;40.274;18.268;2023-02-14T11:02:05;102519.09;;;12.06;100.00
33404;BME280;19751;40.274;18.268;2023-02-14T11:04:32;102525.13;;;12.17;100.00
33404;BME280;19751;40.274;18.268;2023-02-14T11:06:59;102513.84;;;12.22;100.00
33404;BME280;19751;40.274;18.268;2023-02-14T11:09:24;102515.84;;;12.20;100.00
33404;BME280;19751;40.274;18.268;2023-02-14T11:11:52;102507.69;;;12.12;100.00
33404;BME280;19751;40.274;18.268;2023-02-14T11:14:24;102513.69;;;12.06;100.00
33404;BME280;19751;40.274;18.268;2023-02-14T11:16:50;102518.06;;;11.99;100.00
33404;BME280;19751;40.274;18.268;2023-02-14T11:21:48;102511.88;;;11.88;100.00
33404;BME280;19751;40.274;18.268;2023-02-14T11:27:15;102511.06;;;11.78;100.00
33404;BME280;19751;40.274;18.268;2023-02-14T11:29:42;102500.59;;;11.75;100.00
33404;BME280;19751;40.274;18.268;2023-02-14T11:32:23;102500.88;;;11.72;100.00
33404;BME280;19751;40.274;18.268;2023-02-14T11:35:02;102497.50;;;11.70;100.00
33404;BME280;19751;40.274;18.268;2023-02-14T11:37:38;102488.56;;;11.69;100.00
33404;BME280;19751;40.274;18.268;2023-02-14T11:40:24;102483.16;;;11.69;100.00
33404;BME280;19751;40.274;18.268;2023-02-14T11:42:52;102481.97;;;11.72;100.00
33404;BME280;19751;40.274;18.268;2023-02-14T11:45:32;102477.97;;;11.76;100.00
33404;BME280;19751;40.274;18.268;2023-02-14T11:50:35;102467.66;;;11.89;100.00
33404;BME280;19751;40.274;18.268;2023-02-14T11:53:01;102477.00;;;11.95;100.00
33404;BME280;19751;40.274;18.268;2023-02-14T11:55:32;102465.88;;;11.98;100.00
33404;BME280;19751;40.274;18.268;2023-02-14T11:58:01;102461.00;;;12.02;100.00
33404;BME280;19751;40.274;18.268;2023-02-14T12:00:27;102455.28;;;12.05;100.00
33404;BME280;19751;40.274;18.268;2023-02-14T12:02:57;102452.97;;;12.10;100.00
33404;BME280;19751;40.274;18.268;2023-02-14T12:05:45;102447.78;;;12.16;100.00
33404;BME280;19751;40.274;18.268;2023-02-14T12:08:12;102448.63;;;12.17;100.00
33404;BME280;19751;40.274;18.268;2023-02-14T12:10:38;102459.44;;;12.17;100.00
33404;BME280;19751;40.274;18.268;2023-02-14T12:18:34;102433.56;;;12.14;100.00
33404;BME280;19751;40.274;18.268;2023-02-14T12:26:54;102424.69;;;12.22;100.00
33404;BME280;19751;40.274;18.268;2023-02-14T12:32:00;102426.09;;;12.34;100.00
33404;BME280;19751;40.274;18.268;2023-02-14T12:34:27;102424.09;;;12.36;100.00
33404;BME280;19751;40.274;18.268;2023-02-14T12:40:09;102419.19;;;12.32;99.31
33404;BME280;19751;40.274;18.268;2023-02-14T12:50:40;102400.16;;;12.41;97.11
33404;BME280;19751;40.274;18.268;2023-02-14T12:58:50;102380.78;;;12.54;98.58
33404;BME280;19751;40.274;18.268;2023-02-14T13:06:30;102377.56;;;12.51;94.30
33404;BME280;19751;40.274;18.268;2023-02-14T13:15:00;102372.78;;;12.36;96.68
33404;BME280;19751;40.274;18.268;2023-02-14T13:22:55;102372.72;;;12.28;96.33
33404;BME280;19751;40.274;18.268;2023-02-14T13:25:29;102357.00;;;12.24;96.79
33404;BME280;19751;40.274;18.268;2023-02-14T13:28:03;102364.94;;;12.25;98.46
33404;BME280;19751;40.274;18.268;2023-02-14T13:30:34;102349.91;;;12.31;98.82
33404;BME280;19751;40.274;18.268;2023-02-14T13:33:25;102367.50;;;12.35;99.51
33404;BME280;19751;40.274;18.268;2023-02-14T13:36:02;102360.78;;;12.39;99.55
33404;BME280;19751;40.274;18.268;2023-02-14T13:38:29;102347.97;;;12.41;99.49
33404;BME280;19751;40.274;18.268;2023-02-14T13:40:57;102355.88;;;12.42;99.12
33404;BME280;19751;40.274;18.268;2023-02-14T13:43:46;102346.41;;;12.38;97.95
33404;BME280;19751;40.274;18.268;2023-02-14T13:46:13;102342.56;;;12.41;97.96
33404;BME280;19751;40.274;18.268;2023-02-14T13:48:41;102361.81;;;12.46;98.95
33404;BME280;19751;40.274;18.268;2023-02-14T13:51:08;102360.81;;;12.47;98.41
33404;BME280;19751;40.274;18.268;2023-02-14T13:58:48;102341.56;;;12.50;98.48
33404;BME280;19751;40.274;18.268;2023-02-14T14:17:37;102334.25;;;12.93;94.38
33404;BME280;19751;40.274;18.268;2023-02-14T14:22:57;102336.16;;;13.17;92.73
33404;BME280;19751;40.274;18.268;2023-02-14T14:25:39;102336.16;;;13.17;92.07
33404;BME280;19751;40.274;18.268;2023-02-14T14:28:19;102327.50;;;13.05;89.74
33404;BME280;19751;40.274;18.268;2023-02-14T14:30:45;102321.94;;;12.99;91.01
33404;BME280;19751;40.274;18.268;2023-02-14T14:33:32;102329.69;;;12.93;91.70
33404;BME280;19751;40.274;18.268;2023-02-14T14:36:06;102326.31;;;13.00;92.07
33404;BME280;19751;40.274;18.268;2023-02-14T14:38:46;102332.25;;;12.95;91.65
33404;BME280;19751;40.274;18.268;2023-02-14T14:41:12;102327.31;;;12.82;92.05
33404;BME280;19751;40.274;18.268;2023-02-14T14:43:39;102339.44;;;12.70;92.44
33404;BME280;19751;40.274;18.268;2023-02-14T14:46:09;102324.22;;;12.61;93.85
33404;BME280;19751;40.274;18.268;2023-02-14T14:48:47;102322.16;;;12.55;94.83
33404;BME280;19751;40.274;18.268;2023-02-14T14:51:31;102325.53;;;12.49;95.76
33404;BME280;19751;40.274;18.268;2023-02-14T14:54:22;102319.75;;;12.43;97.29
33404;BME280;19751;40.274;18.268;2023-02-14T14:57:01;102319.75;;;12.43;97.45
33404;BME280;19751;40.274;18.268;2023-02-14T14:59:33;102319.25;;;12.40;97.33
33404;BME280;19751;40.274;18.268;2023-02-14T15:02:33;102319.75;;;12.43;97.72
33404;BME280;19751;40.274;18.268;2023-02-14T15:05:33;102323.94;;;12.38;96.86
33404;BME280;19751;40.274;18.268;2023-02-14T15:13:34;102312.94;;;12.74;96.53
33404;BME280;19751;40.274;18.268;2023-02-14T15:16:24;102319.69;;;12.78;96.38
33404;BME280;19751;40.274;18.268;2023-02-14T15:18:58;102322.91;;;12.73;95.38
33404;BME280;19751;40.274;18.268;2023-02-14T15:21:25;102315.63;;;12.65;95.20
33404;BME280;19751;40.274;18.268;2023-02-14T15:23:52;102311.03;;;12.58;95.31
33404;BME280;19751;40.274;18.268;2023-02-14T15:26:31;102315.72;;;12.48;96.47
33404;BME280;19751;40.274;18.268;2023-02-14T15:29:00;102315.00;;;12.37;98.03